Time;durP1;ratioP1;P1;durP2;ratioP2;P2;SDS_P1;SDS_P2;PMS_P1;PMS_P2;Temp;Humidity;BMP_temperature;BMP_pressure;BME280_temperature;BME280_humidity;BME280_pressure;Samples;Min_cycle;Max_cycle;Signal;HPM_P1;HPM_P2
2023/02/11 00:00:24;;;;;;;;;;;;;;;;;;10428835;28;20056;-79
2023/02/11 00:05:26;;;;;;;11.60;4.63;;;;;;;;;;10441717;28;19920;-78
2023/02/11 00:10:30;;;;;;;25.47;8.83;;;;;;;;;;10438650;28;20065;-78
2023/02/11 00:15:32;;;;;;;22.00;9.38;;;;;;;;;;10439652;28;20041;-79
2023/02/11 00:20:35;;;;;;;26.57;8.70;;;;;;;;;;10430673;28;20470;-78
2023/02/11 00:25:40;;;;;;;11.47;5.73;;;;;;;;;;10432245;28;20060;-79
2023/02/11 00:30:43;;;;;;;17.90;5.80;;;;;;;;;;10431998;28;20061;-81
2023/02/11 00:35:46;;;;;;;21.53;7.87;;;;;;;;;;10414904;28;20041;-79
2023/02/11 00:40:50;;;;;;;15.50;6.00;;;;;;;;;;10441450;28;20048;-79
2023/02/11 00:45:54;;;;;;;11.90;4.38;;;;;;;;;;10439702;28;20155;-79
2023/02/11 00:50:56;;;;;;;23.77;7.20;;;;;;;;;;10436703;28;20045;-78
2023/02/11 00:56:00;;;;;;;6.90;3.37;;;;;;;;;;10420638;28;20049;-79
2023/02/11 01:01:03;;;;;;;8.10;2.45;;;;;;;;;;10431124;28;20036;-79
2023/02/11 01:06:07;;;;;;;17.77;7.67;;;;;;;;;;10428048;28;20048;-79
2023/02/11 01:11:14;;;;;;;8.88;2.88;;;;;;;;;;10439257;28;20041;-80
2023/02/11 01:16:17;;;;;;;5.57;2.97;;;;;;;;;;10429964;28;20110;-79
2023/02/11 01:21:20;;;;;;;11.80;5.17;;;;;;;;;;10431481;28;20048;-79
2023/02/11 01:26:24;;;;;;;17.07;5.80;;;;;;;;;;10445542;28;20527;-80
2023/02/11 01:31:26;;;;;;;15.27;6.72;;;;;;;;;;10428308;28;20467;-79
2023/02/11 01:36:29;;;;;;;15.37;6.07;;;;;;;;;;10412349;28;20041;-80
2023/02/11 01:41:33;;;;;;;14.47;5.93;;;;;;;;;;10439744;28;20575;-78
2023/02/11 01:46:36;;;;;;;10.10;4.20;;;;;;;;;;10447623;28;20056;-79
2023/02/11 01:51:41;;;;;;;17.17;6.03;;;;;;;;;;10448783;28;20045;-79
2023/02/11 02:02:09;;;;;;;20.37;4.47;;;;;;;;;;10451353;28;20037;-79
2023/02/11 02:07:14;;;;;;;13.20;4.17;;;;;;;;;;10452296;28;20049;-79
2023/02/11 02:12:18;;;;;;;9.77;3.43;;;;;;;;;;10436123;28;20478;-80
2023/02/11 02:17:26;;;;;;;18.00;6.43;;;;;;;;;;10451824;28;20052;-80
2023/02/11 02:22:37;;;;;;;18.10;6.00;;;;;;;;;;10441268;28;20124;-78
2023/02/11 02:27:48;;;;;;;10.67;4.13;;;;;;;;;;10443340;28;20064;-78
2023/02/11 02:32:57;;;;;;;7.33;1.90;;;;;;;;;;10439268;28;20673;-78
2023/02/11 02:38:01;;;;;;;5.40;2.53;;;;;;;;;;10440332;28;20057;-79
2023/02/11 02:43:04;;;;;;;16.70;6.27;;;;;;;;;;10436419;28;20049;-79
2023/02/11 02:48:22;;;;;;;8.27;3.60;;;;;;;;;;10438291;28;20049;-79
2023/02/11 02:53:32;;;;;;;8.83;3.60;;;;;;;;;;10438439;28;20033;-79
2023/02/11 02:58:44;;;;;;;11.27;4.00;;;;;;;;;;10441252;28;20044;-81
2023/02/11 03:03:55;;;;;;;9.25;3.25;;;;;;;;;;10445477;28;20124;-79
2023/02/11 03:09:00;;;;;;;14.67;5.50;;;;;;;;;;10435791;28;20099;-79
2023/02/11 03:14:04;;;;;;;8.70;3.73;;;;;;;;;;10438423;28;20490;-79
2023/02/11 03:19:11;;;;;;;7.80;4.10;;;;;;;;;;10439750;28;20037;-79
2023/02/11 03:24:16;;;;;;;9.30;3.60;;;;;;;;;;10439197;28;20498;-79
2023/02/11 03:29:24;;;;;;;15.23;6.00;;;;;;;;;;10440506;28;20064;-79
2023/02/11 03:34:30;;;;;;;8.37;3.53;;;;;;;;;;10441289;28;20037;-77
2023/02/11 03:39:34;;;;;;;10.27;3.90;;;;;;;;;;10437944;28;20041;-78
2023/02/11 03:44:40;;;;;;;10.63;4.67;;;;;;;;;;10442374;28;20118;-79
2023/02/11 03:49:45;;;;;;;15.03;5.73;;;;;;;;;;10442065;28;20041;-79
2023/02/11 03:54:49;;;;;;;1.20;1.07;;;;;;;;;;10415396;28;20098;-79
2023/02/11 03:59:52;;;;;;;8.57;3.17;;;;;;;;;;10435665;28;20052;-79
2023/02/11 04:04:57;;;;;;;11.07;3.87;;;;;;;;;;10433794;28;20041;-80
2023/02/11 04:10:00;;;;;;;16.37;4.43;;;;;;;;;;10433693;28;20141;-80
2023/02/11 04:15:02;;;;;;;10.13;3.30;;;;;;;;;;10418893;28;20379;-79
2023/02/11 04:20:07;;;;;;;5.20;1.93;;;;;;;;;;10436945;28;20494;-79
2023/02/11 04:25:10;;;;;;;4.67;2.07;;;;;;;;;;10440780;28;20048;-79
2023/02/11 04:30:13;;;;;;;10.77;3.07;;;;;;;;;;10436987;28;20051;-78
2023/02/11 04:35:17;;;;;;;7.97;2.03;;;;;;;;;;10435569;28;20050;-78
2023/02/11 04:40:20;;;;;;;6.80;2.67;;;;;;;;;;10411656;28;20049;-78
2023/02/11 04:45:23;;;;;;;17.00;5.13;;;;;;;;;;10430483;28;20136;-78
2023/02/11 04:50:27;;;;;;;12.53;4.47;;;;;;;;;;10434955;28;20117;-79
2023/02/11 04:55:30;;;;;;;11.07;4.38;;;;;;;;;;10432318;28;20041;-79
2023/02/11 05:00:33;;;;;;;10.93;4.40;;;;;;;;;;10432672;28;22044;-80
2023/02/11 05:05:39;;;;;;;13.73;4.37;;;;;;;;;;10428113;28;20077;-78
2023/02/11 05:10:45;;;;;;;11.90;4.33;;;;;;;;;;10431461;28;20049;-78
2023/02/11 05:15:48;;;;;;;10.90;3.43;;;;;;;;;;10428816;28;20128;-80
2023/02/11 05:20:53;;;;;;;7.75;3.08;;;;;;;;;;10431528;28;20379;-79
2023/02/11 05:25:55;;;;;;;7.05;2.90;;;;;;;;;;10438689;28;20045;-80
2023/02/11 05:31:00;;;;;;;11.57;4.43;;;;;;;;;;10435621;28;20033;-78
2023/02/11 05:36:06;;;;;;;10.83;3.90;;;;;;;;;;10439250;28;20073;-78
2023/02/11 05:41:09;;;;;;;3.90;1.80;;;;;;;;;;10437507;28;20079;-80
2023/02/11 05:46:12;;;;;;;7.77;2.73;;;;;;;;;;10440590;28;20076;-79
2023/02/11 05:51:16;;;;;;;15.10;5.30;;;;;;;;;;10448046;28;20087;-77
2023/02/11 05:56:18;;;;;;;5.20;2.63;;;;;;;;;;10450074;28;20060;-77
2023/02/11 06:01:21;;;;;;;4.47;1.93;;;;;;;;;;10440607;28;20047;-79
2023/02/11 06:06:25;;;;;;;3.53;0.83;;;;;;;;;;10438991;28;20045;-80
2023/02/11 06:11:28;;;;;;;12.45;3.08;;;;;;;;;;10430712;28;20052;-79
2023/02/11 06:16:30;;;;;;;8.77;3.37;;;;;;;;;;10436580;28;20057;-80
2023/02/11 06:21:34;;;;;;;3.43;1.87;;;;;;;;;;10415071;28;20045;-79
2023/02/11 06:26:45;;;;;;;7.63;3.20;;;;;;;;;;10437463;28;20664;-79
2023/02/11 06:31:48;;;;;;;15.23;4.23;;;;;;;;;;10447202;28;20037;-79
2023/02/11 06:36:52;;;;;;;14.03;4.87;;;;;;;;;;10442563;28;20041;-79
2023/02/11 06:41:54;;;;;;;6.55;2.50;;;;;;;;;;10440286;28;20047;-79
2023/02/11 06:46:57;;;;;;;7.07;2.73;;;;;;;;;;10438171;28;20041;-78
2023/02/11 06:52:02;;;;;;;12.13;4.50;;;;;;;;;;10416010;28;20558;-79
2023/02/11 06:57:05;;;;;;;12.73;4.33;;;;;;;;;;10443656;28;20037;-78
2023/02/11 07:02:09;;;;;;;14.00;4.33;;;;;;;;;;10438654;28;20079;-79
2023/02/11 07:07:13;;;;;;;11.68;4.30;;;;;;;;;;10439925;28;20114;-79
2023/02/11 07:12:15;;;;;;;5.53;2.25;;;;;;;;;;10434266;28;20552;-79
2023/02/11 07:17:18;;;;;;;7.13;2.37;;;;;;;;;;10445242;28;20138;-80
2023/02/11 07:22:22;;;;;;;6.87;2.97;;;;;;;;;;10412497;28;20041;-79
2023/02/11 07:27:25;;;;;;;10.07;3.65;;;;;;;;;;10436803;28;20036;-79
2023/02/11 07:32:28;;;;;;;9.30;3.90;;;;;;;;;;10432670;28;20041;-79
2023/02/11 07:37:32;;;;;;;11.93;4.43;;;;;;;;;;10440808;28;20049;-80
2023/02/11 07:42:35;;;;;;;5.63;1.83;;;;;;;;;;10433673;28;20148;-78
2023/02/11 07:47:38;;;;;;;17.73;4.70;;;;;;;;;;10439228;28;20098;-78
2023/02/11 07:52:42;;;;;;;10.97;5.40;;;;;;;;;;10439336;28;20045;-78
2023/02/11 07:57:45;;;;;;;5.10;2.63;;;;;;;;;;10423080;28;20040;-79
2023/02/11 08:02:47;;;;;;;4.97;2.23;;;;;;;;;;10441010;28;20123;-78
2023/02/11 08:07:52;;;;;;;2.30;1.73;;;;;;;;;;10438021;28;20487;-78
2023/02/11 08:12:55;;;;;;;;;;;;;;;;;;10437704;28;20041;-79
2023/02/11 08:17:57;;;;;;;8.57;3.23;;;;;;;;;;10436432;28;20358;-78
2023/02/11 08:23:02;;;;;;;13.27;3.97;;;;;;;;;;10436000;28;20047;-80
2023/02/11 08:28:05;;;;;;;10.27;3.70;;;;;;;;;;10436947;28;20045;-80
2023/02/11 08:33:07;;;;;;;12.70;3.72;;;;;;;;;;10435103;28;20079;-81
2023/02/11 08:38:11;;;;;;;17.80;5.37;;;;;;;;;;10440425;28;20052;-79
2023/02/11 08:43:14;;;;;;;10.60;3.72;;;;;;;;;;10436543;28;20417;-79
2023/02/11 08:48:17;;;;;;;12.60;3.67;;;;;;;;;;10434425;28;20343;-79
2023/02/11 08:53:21;;;;;;;15.40;3.45;;;;;;;;;;10429503;28;20567;-79
2023/02/11 08:58:23;;;;;;;13.70;6.05;;;;;;;;;;10435241;28;20275;-79
2023/02/11 09:03:26;;;;;;;18.60;5.00;;;;;;;;;;10427710;28;20040;-80
2023/02/11 09:08:30;;;;;;;14.13;5.28;;;;;;;;;;10434380;28;20033;-80
2023/02/11 09:13:32;;;;;;;10.88;4.13;;;;;;;;;;10426762;28;20031;-80
2023/02/11 09:18:35;;;;;;;11.15;4.15;;;;;;;;;;10430719;28;20129;-78
2023/02/11 09:23:42;;;;;;;16.67;6.57;;;;;;;;;;10414635;28;20377;-80
2023/02/11 09:28:45;;;;;;;13.45;5.60;;;;;;;;;;10436033;28;20131;-77
2023/02/11 09:33:49;;;;;;;11.50;3.88;;;;;;;;;;10436728;28;20044;-79
2023/02/11 09:38:54;;;;;;;10.27;4.57;;;;;;;;;;10425501;28;20102;-80
2023/02/11 09:43:58;;;;;;;15.45;5.53;;;;;;;;;;10423378;28;20669;-80
2023/02/11 09:49:01;;;;;;;13.10;4.38;;;;;;;;;;10429399;28;20474;-79
2023/02/11 09:54:11;;;;;;;14.38;5.78;;;;;;;;;;10435688;28;20084;-79
2023/02/11 09:59:14;;;;;;;8.32;4.82;;;;;;;;;;10435739;28;20095;-79
2023/02/11 10:04:22;;;;;;;15.82;7.60;;;;;;;;;;10447369;28;20041;-80
2023/02/11 10:09:33;;;;;;;10.95;4.18;;;;;;;;;;10443296;28;20118;-80
2023/02/11 10:14:44;;;;;;;8.68;4.40;;;;;;;;;;10443023;28;20390;-80
2023/02/11 10:19:53;;;;;;;16.48;6.93;;;;;;;;;;10440318;28;20064;-80
2023/02/11 10:24:59;;;;;;;18.90;5.47;;;;;;;;;;10431514;28;20048;-80
2023/02/11 10:30:04;;;;;;;13.43;5.25;;;;;;;;;;10421664;28;20037;-80
2023/02/11 10:35:14;;;;;;;17.40;7.07;;;;;;;;;;10449020;28;20067;-79
2023/02/11 10:40:19;;;;;;;20.35;8.05;;;;;;;;;;10451000;28;20052;-80
2023/02/11 10:45:24;;;;;;;15.30;5.57;;;;;;;;;;10425183;28;20043;-79
2023/02/11 10:50:28;;;;;;;19.77;6.88;;;;;;;;;;10440503;28;20049;-80
2023/02/11 10:55:32;;;;;;;20.05;8.38;;;;;;;;;;10444617;28;20446;-80
2023/02/11 11:00:36;;;;;;;;;;;;;;;;;;10444387;28;20079;-80
2023/02/11 11:05:46;;;;;;;19.77;7.95;;;;;;;;;;10438114;28;19986;-80
2023/02/11 11:11:04;;;;;;;19.15;7.45;;;;;;;;;;10445036;28;20045;-80
2023/02/11 11:16:08;;;;;;;19.92;7.90;;;;;;;;;;10433483;28;20033;-80
2023/02/11 11:21:13;;;;;;;22.23;8.63;;;;;;;;;;10442175;28;20053;-80
2023/02/11 11:26:18;;;;;;;11.40;4.13;;;;;;;;;;10436328;28;20457;-79
2023/02/11 11:31:22;;;;;;;15.23;6.57;;;;;;;;;;10440090;28;20060;-80
2023/02/11 11:36:31;;;;;;;18.15;6.28;;;;;;;;;;10420151;28;20486;-79
2023/02/11 11:41:35;;;;;;;18.73;6.57;;;;;;;;;;10437119;28;20406;-80
2023/02/11 11:46:38;;;;;;;10.75;4.78;;;;;;;;;;10436652;28;20494;-80
2023/02/11 11:51:41;;;;;;;;;;;;;;;;;;10441072;28;20398;-80
2023/02/11 11:56:50;;;;;;;16.98;7.00;;;;;;;;;;10435561;28;20392;-80
2023/02/11 12:02:04;;;;;;;18.95;7.93;;;;;;;;;;10438978;28;20143;-80
2023/02/11 12:07:14;;;;;;;17.95;7.45;;;;;;;;;;10438839;28;20435;-80
2023/02/11 12:12:25;;;;;;;22.60;9.57;;;;;;;;;;10414165;28;20131;-80
2023/02/11 12:17:35;;;;;;;13.43;6.28;;;;;;;;;;10434328;28;20049;-80
2023/02/11 12:22:41;;;;;;;14.25;5.63;;;;;;;;;;10434871;28;20044;-80
2023/02/11 12:27:50;;;;;;;14.63;5.00;;;;;;;;;;10439880;28;20049;-80
2023/02/11 12:32:57;;;;;;;11.32;4.82;;;;;;;;;;10443397;28;20509;-80
2023/02/11 12:38:14;;;;;;;18.38;7.28;;;;;;;;;;10428231;28;20101;-80
2023/02/11 12:43:23;;;;;;;13.68;5.97;;;;;;;;;;10433141;28;20053;-81
2023/02/11 12:48:34;;;;;;;16.00;6.28;;;;;;;;;;10439827;28;20128;-80
2023/02/11 12:53:43;;;;;;;10.88;4.28;;;;;;;;;;10436514;28;20434;-79
2023/02/11 12:58:50;;;;;;;15.90;5.85;;;;;;;;;;10440683;28;20406;-80
2023/02/11 13:03:54;;;;;;;17.75;7.20;;;;;;;;;;10435476;28;20037;-80
2023/02/11 13:09:00;;;;;;;15.75;6.47;;;;;;;;;;10434870;28;20106;-80
2023/02/11 13:14:06;;;;;;;17.40;6.53;;;;;;;;;;10434165;28;20052;-80
2023/02/11 13:19:15;;;;;;;17.23;8.32;;;;;;;;;;10429468;28;20052;-81
2023/02/11 13:24:25;;;;;;;18.10;7.65;;;;;;;;;;10436167;28;20472;-79
2023/02/11 13:29:33;;;;;;;17.23;7.03;;;;;;;;;;10440160;28;20041;-80
2023/02/11 13:34:56;;;;;;;20.63;8.45;;;;;;;;;;10431269;28;20410;-80
2023/02/11 13:39:59;;;;;;;22.02;8.02;;;;;;;;;;10442673;28;20132;-80
2023/02/11 13:45:16;;;;;;;16.52;8.02;;;;;;;;;;10419035;28;20220;-80
2023/02/11 13:50:21;;;;;;;16.60;7.57;;;;;;;;;;10441423;28;20460;-81
2023/02/11 13:55:26;;;;;;;13.65;6.90;;;;;;;;;;10449692;28;20459;-82
2023/02/11 14:00:31;;;;;;;17.05;6.53;;;;;;;;;;10446911;28;20037;-79
2023/02/11 14:10:56;;;;;;;15.95;6.32;;;;;;;;;;10446751;28;20049;-81
2023/02/11 14:16:06;;;;;;;15.52;6.15;;;;;;;;;;10444607;28;20429;-81
2023/02/11 14:21:15;;;;;;;18.20;6.75;;;;;;;;;;10433712;28;20047;-82
2023/02/11 14:26:26;;;;;;;22.52;7.53;;;;;;;;;;10436779;28;20133;-82
2023/02/11 14:31:34;;;;;;;13.68;6.05;;;;;;;;;;10439839;28;20038;-81
2023/02/11 14:36:47;;;;;;;16.73;7.28;;;;;;;;;;10437737;28;20029;-80
2023/02/11 14:41:50;;;;;;;17.23;6.73;;;;;;;;;;10443576;28;20399;-81
2023/02/11 14:46:55;;;;;;;21.60;8.80;;;;;;;;;;10437773;28;20372;-80
2023/02/11 14:52:03;;;;;;;18.63;7.25;;;;;;;;;;10440584;28;20052;-81
2023/02/11 14:57:07;;;;;;;18.38;7.38;;;;;;;;;;10442438;28;20094;-80
2023/02/11 15:02:10;;;;;;;;;;;;;;;;;;10441534;28;20136;-80
2023/02/11 15:07:15;;;;;;;19.67;7.70;;;;;;;;;;10430399;28;19940;-80
2023/02/11 15:12:22;;;;;;;21.20;7.47;;;;;;;;;;10434460;28;20041;-80
2023/02/11 15:17:27;;;;;;;21.33;8.15;;;;;;;;;;10436157;28;20470;-80
2023/02/11 15:22:33;;;;;;;26.15;8.98;;;;;;;;;;10437683;28;20053;-79
2023/02/11 15:27:39;;;;;;;24.10;9.05;;;;;;;;;;10437341;28;20061;-79
2023/02/11 15:32:44;;;;;;;23.42;8.95;;;;;;;;;;10436695;28;20494;-81
2023/02/11 15:37:48;;;;;;;22.23;9.05;;;;;;;;;;10442616;28;20137;-81
2023/02/11 15:42:53;;;;;;;37.75;12.93;;;;;;;;;;10432433;28;20061;-80
2023/02/11 15:48:01;;;;;;;23.92;9.32;;;;;;;;;;10437790;28;20043;-81
2023/02/11 15:53:15;;;;;;;23.80;9.43;;;;;;;;;;10435841;28;20048;-80
2023/02/11 15:58:18;;;;;;;22.50;8.35;;;;;;;;;;10436514;28;20048;-80
2023/02/11 16:03:22;;;;;;;25.17;9.68;;;;;;;;;;10435289;28;20056;-81
2023/02/11 16:08:25;;;;;;;;;;;;;;;;;;10438244;28;20064;-80
2023/02/11 16:13:32;;;;;;;29.73;10.48;;;;;;;;;;10415933;28;19974;-80
2023/02/11 16:18:36;;;;;;;24.80;9.65;;;;;;;;;;10437837;28;20041;-80
2023/02/11 16:23:41;;;;;;;28.80;9.88;;;;;;;;;;10430029;28;20444;-79
2023/02/11 16:28:45;;;;;;;30.57;10.30;;;;;;;;;;10438428;28;20176;-79
2023/02/11 16:33:48;;;;;;;25.92;9.52;;;;;;;;;;10436618;28;20094;-80
2023/02/11 16:38:51;;;;;;;32.05;10.40;;;;;;;;;;10433639;28;20051;-79
2023/02/11 16:43:56;;;;;;;24.45;9.25;;;;;;;;;;10431647;28;20516;-79
2023/02/11 16:49:04;;;;;;;29.33;10.82;;;;;;;;;;10431151;28;20099;-80
2023/02/11 16:54:07;;;;;;;34.50;11.32;;;;;;;;;;10428225;28;20045;-79
2023/02/11 16:59:11;;;;;;;26.83;9.77;;;;;;;;;;10438772;28;20059;-79
2023/02/11 17:04:13;;;;;;;;;;;;;;;;;;10435092;28;20098;-81
2023/02/11 17:09:19;;;;;;;27.10;9.43;;;;;;;;;;10434214;28;20341;-80
2023/02/11 17:14:23;;;;;;;28.25;9.88;;;;;;;;;;10415534;28;20115;-79
2023/02/11 17:19:25;;;;;;;27.95;11.02;;;;;;;;;;10440638;28;20036;-81
2023/02/11 17:24:28;;;;;;;28.63;10.15;;;;;;;;;;10427903;28;20120;-79
2023/02/11 17:29:32;;;;;;;26.88;10.80;;;;;;;;;;10442441;28;20498;-79
2023/02/11 17:34:35;;;;;;;33.13;11.27;;;;;;;;;;10429258;28;20056;-80
2023/02/11 17:39:38;;;;;;;31.95;11.13;;;;;;;;;;10430405;28;20091;-79
2023/02/11 17:44:43;;;;;;;25.73;10.27;;;;;;;;;;10430051;28;20037;-79
2023/02/11 17:49:46;;;;;;;22.95;9.93;;;;;;;;;;10436016;28;20408;-79
2023/02/11 17:54:49;;;;;;;26.75;10.00;;;;;;;;;;10435438;28;20033;-79
2023/02/11 17:59:52;;;;;;;32.75;12.55;;;;;;;;;;10435148;28;20057;-78
2023/02/11 18:04:56;;;;;;;23.17;9.30;;;;;;;;;;10414399;28;20037;-78
2023/02/11 18:09:59;;;;;;;24.13;8.75;;;;;;;;;;10439370;28;20136;-78
2023/02/11 18:15:03;;;;;;;24.48;9.77;;;;;;;;;;10437218;28;20133;-79
2023/02/11 18:20:06;;;;;;;23.27;9.25;;;;;;;;;;10448802;28;20075;-81
2023/02/11 18:25:11;;;;;;;22.00;8.83;;;;;;;;;;10462835;28;20033;-80
2023/02/11 18:30:16;;;;;;;24.10;9.15;;;;;;;;;;10487207;28;20334;-79
2023/02/11 18:35:19;;;;;;;19.10;8.02;;;;;;;;;;10482855;28;20112;-80
2023/02/11 18:40:21;;;;;;;26.60;9.25;;;;;;;;;;10484256;28;20112;-80
2023/02/11 18:45:27;;;;;;;22.77;9.05;;;;;;;;;;10469474;28;20120;-80
2023/02/11 18:50:30;;;;;;;22.75;8.48;;;;;;;;;;10445098;28;20123;-79
2023/02/11 18:55:32;;;;;;;27.95;10.38;;;;;;;;;;10454514;28;20044;-81
2023/02/11 19:00:38;;;;;;;22.98;8.60;;;;;;;;;;10449924;28;20188;-80
2023/02/11 19:05:41;;;;;;;33.47;10.38;;;;;;;;;;10451582;28;20086;-80
2023/02/11 19:10:44;;;;;;;21.77;8.95;;;;;;;;;;10427890;28;20049;-80
2023/02/11 19:15:48;;;;;;;27.17;10.02;;;;;;;;;;10443775;28;20415;-79
2023/02/11 19:20:51;;;;;;;;;;;;;;;;;;10443309;28;20041;-81
2023/02/11 19:25:54;;;;;;;30.20;9.63;;;;;;;;;;10437842;28;19952;-80
2023/02/11 19:30:58;;;;;;;23.70;9.63;;;;;;;;;;10445294;28;20045;-81
2023/02/11 19:36:05;;;;;;;23.05;9.02;;;;;;;;;;10439554;28;20115;-80
2023/02/11 19:41:07;;;;;;;24.95;10.15;;;;;;;;;;10436543;28;20127;-80
2023/02/11 19:46:11;;;;;;;27.83;9.55;;;;;;;;;;10442845;28;20036;-79
2023/02/11 19:51:14;;;;;;;13.50;6.10;;;;;;;;;;10441200;28;20036;-80
2023/02/11 19:56:17;;;;;;;27.80;11.00;;;;;;;;;;10424043;28;20458;-80
2023/02/11 20:01:24;;;;;;;18.83;7.03;;;;;;;;;;10438774;28;20045;-80
2023/02/11 20:06:28;;;;;;;29.58;10.52;;;;;;;;;;10437516;28;20443;-79
2023/02/11 20:11:31;;;;;;;24.53;10.80;;;;;;;;;;10429442;28;20106;-79
2023/02/11 20:16:35;;;;;;;20.83;8.20;;;;;;;;;;10438278;28;20132;-79
2023/02/11 20:21:51;;;;;;;21.55;7.53;;;;;;;;;;10437848;28;20095;-80
2023/02/11 20:26:55;;;;;;;18.33;5.88;;;;;;;;;;10440770;28;20467;-79
2023/02/11 20:31:59;;;;;;;33.30;13.00;;;;;;;;;;10439514;28;20040;-78
2023/02/11 20:37:02;;;;;;;15.80;5.80;;;;;;;;;;10447822;28;20043;-78
2023/02/11 20:42:05;;;;;;;30.10;11.53;;;;;;;;;;10431622;28;20079;-78
2023/02/11 20:47:09;;;;;;;29.08;11.35;;;;;;;;;;10441758;28;20040;-79
2023/02/11 20:52:12;;;;;;;26.15;10.15;;;;;;;;;;10439248;28;20203;-79
2023/02/11 20:57:14;;;;;;;27.38;11.73;;;;;;;;;;10428088;28;20455;-79
2023/02/11 21:02:19;;;;;;;30.40;11.35;;;;;;;;;;10436256;28;20041;-78
2023/02/11 21:07:28;;;;;;;28.10;11.40;;;;;;;;;;10438866;28;20087;-79
2023/02/11 21:12:31;;;;;;;27.58;11.15;;;;;;;;;;10438043;28;20122;-79
2023/02/11 21:17:35;;;;;;;27.58;10.70;;;;;;;;;;10438799;28;20045;-79
2023/02/11 21:22:38;;;;;;;30.83;10.48;;;;;;;;;;10429194;28;20621;-80
2023/02/11 21:27:41;;;;;;;38.45;11.68;;;;;;;;;;10436317;28;20078;-80
2023/02/11 21:32:44;;;;;;;36.90;13.02;;;;;;;;;;10432720;28;20041;-80
2023/02/11 21:37:47;;;;;;;30.02;11.93;;;;;;;;;;10436160;28;20118;-80
2023/02/11 21:42:50;;;;;;;28.02;10.10;;;;;;;;;;10433815;28;20041;-79
2023/02/11 21:47:54;;;;;;;25.92;10.13;;;;;;;;;;10438766;28;20247;-80
2023/02/11 21:52:57;;;;;;;24.83;9.20;;;;;;;;;;10429653;28;20044;-80
2023/02/11 21:57:59;;;;;;;30.08;9.73;;;;;;;;;;10441691;28;20251;-79
2023/02/11 22:03:03;;;;;;;27.58;9.50;;;;;;;;;;10448305;28;20449;-80
2023/02/11 22:08:06;;;;;;;27.30;11.18;;;;;;;;;;10444960;28;20048;-80
2023/02/11 22:13:08;;;;;;;20.77;7.38;;;;;;;;;;10443804;28;20038;-80
2023/02/11 22:18:12;;;;;;;25.40;8.95;;;;;;;;;;10446648;28;20041;-80
2023/02/11 22:23:14;;;;;;;24.48;9.73;;;;;;;;;;10444483;28;20139;-79
2023/02/11 22:28:20;;;;;;;22.25;9.88;;;;;;;;;;10424012;28;20049;-79
2023/02/11 22:33:24;;;;;;;24.58;9.40;;;;;;;;;;10447464;28;20452;-78
2023/02/11 22:38:27;;;;;;;26.33;10.82;;;;;;;;;;10445002;28;20552;-78
2023/02/11 22:43:30;;;;;;;27.88;10.35;;;;;;;;;;10431493;28;20080;-78
2023/02/11 22:48:34;;;;;;;24.50;9.57;;;;;;;;;;10439760;28;20044;-78
2023/02/11 22:53:37;;;;;;;31.35;11.38;;;;;;;;;;10438272;28;20037;-78
2023/02/11 22:58:39;;;;;;;27.73;10.95;;;;;;;;;;10435676;28;20040;-78
2023/02/11 23:03:43;;;;;;;30.73;11.07;;;;;;;;;;10447612;28;20045;-78
2023/02/11 23:08:47;;;;;;;30.13;11.05;;;;;;;;;;10445075;28;20037;-78
2023/02/11 23:13:50;;;;;;;28.08;10.45;;;;;;;;;;10467576;28;20029;-79
2023/02/11 23:18:54;;;;;;;30.45;10.93;;;;;;;;;;10474036;28;20128;-78
2023/02/11 23:23:58;;;;;;;28.42;11.55;;;;;;;;;;10455341;28;20124;-78
2023/02/11 23:29:00;;;;;;;27.07;11.43;;;;;;;;;;10452156;28;20037;-79
2023/02/11 23:34:05;;;;;;;27.80;10.93;;;;;;;;;;10442267;28;20521;-78
2023/02/11 23:39:07;;;;;;;26.52;10.30;;;;;;;;;;10444396;28;20522;-79
2023/02/11 23:44:10;;;;;;;28.00;10.73;;;;;;;;;;10431578;28;20048;-77
2023/02/11 23:49:14;;;;;;;27.27;11.73;;;;;;;;;;10439840;28;20061;-78
2023/02/11 23:54:17;;;;;;;34.90;11.85;;;;;;;;;;10449444;28;20044;-78
2023/02/11 23:59:20;;;;;;;27.95;11.43;;;;;;;;;;10451455;28;20510;-78
